Have a Safe July 4th! 

Flight Track Log - Related Links

Times and Time Zones

All times are in EDT time to prevent confusion due to time zone crossing. See the KFS77 flight status page for this flight to view local times or setup timezone preferences in your user account.

Time Position Orientation Groundspeed Altitude Reporting Facility
EDT Latitude Longitude Course Direction KTS MPH feet Rate Location/Type
Mon 05:37:25 PM 44.9167 -92.9833 63° Northeast 203 234 2,500  Level Minneapolis TRACON
Mon 05:39:16 PM 44.9664 -92.8447 63° Northeast 219 252 4,000 1,422 Climbing Minneapolis Center
Mon 05:40:18 PM 44.9786 -92.7539 79° East 241 277 6,600 2,323 Climbing Minneapolis Center
Mon 05:41:20 PM 44.9147 -92.7169 158° South 274 315 8,800 2,074 Climbing Minneapolis Center
Mon 05:42:34 PM 44.8364 -92.7414 192° South 287 330 11,300 2,559 Climbing Minneapolis Center
Mon 05:43:36 PM 44.7361 -92.7603 188° South 301 346 14,600 2,339 Climbing Minneapolis Center
Mon 05:45:00 PM 44.6435 -92.5890 127° Southeast  Level Estimated
Mon 05:48:46 PM 44.2664 -92.8231 128° Southeast 354 407 25,800  Level Minneapolis Center
Mon 05:49:48 PM 44.1989 -92.7253 134° Southeast 354 407 27,800 1,839 Climbing Minneapolis Center
Mon 05:50:50 PM 44.1336 -92.6264 133° Southeast 348 400 29,600 1,403 Climbing Minneapolis Center
Mon 05:51:52 PM 44.0556 -92.4994 131° Southeast 358 412 30,700 871 Climbing Minneapolis Center
Mon 05:52:00 PM 44.1769 -91.7405 127° Southeast  Level Estimated
Mon 05:52:54 PM 43.9847 -92.3897 132° Southeast 378 435 31,400  Level Minneapolis Center
Mon 05:53:00 PM 44.1097 -91.6204 128° Southeast  Level Estimated
Mon 05:53:56 PM 43.9025 -92.2914 139° Southeast 390 449 32,300  Level Minneapolis Center
Mon 05:54:00 PM 44.0424 -91.5006 128° Southeast  Level Estimated
Mon 05:54:58 PM 43.8378 -92.2086 137° Southeast 394 453 33,300  Level Minneapolis Center
Mon 05:56:00 PM 43.7397 -92.0756 136° Southeast 386 444 34,800 823 Climbing Minneapolis Center
Mon 05:57:02 PM 43.6556 -91.9789 140° Southeast 397 457 35,000 97 Climbing Minneapolis Center
Mon 05:58:04 PM 43.5681 -91.8786 140° Southeast 410 472 35,000  Level Minneapolis Center
Mon 05:59:06 PM 43.4822 -91.7764 139° Southeast 409 471 35,000  Level Minneapolis Center
Mon 06:00:08 PM 43.3806 -91.6531 139° Southeast 408 470 35,000  Level Minneapolis Center
Mon 06:02:20 PM 43.1817 -91.4478 143° Southeast 406 467 35,000  Level Chicago Center
Mon 06:03:22 PM 43.1203 -91.3164 123° Southeast 409 471 35,000  Level Chicago Center
Mon 06:04:16 PM 43.0689 -91.2108 124° Southeast 411 473 35,000  Level Minneapolis Center
Mon 06:06:20 PM 42.9083 -90.9472 130° Southeast 411 473 35,000  Level Minneapolis Center
Mon 06:07:31 PM 42.8386 -90.8261 128° Southeast 412 474 35,000  Level Chicago Center
Mon 06:08:33 PM 42.7531 -90.6819 129° Southeast 412 474 35,000  Level Chicago Center
Mon 06:09:35 PM 42.6817 -90.5611 129° Southeast 412 474 35,000  Level Chicago Center
Mon 06:10:37 PM 42.6094 -90.4414 129° Southeast 413 475 35,000  Level Chicago Center
Mon 06:11:39 PM 42.5383 -90.3211 129° Southeast 410 472 35,000  Level Chicago Center
Mon 06:12:41 PM 42.4650 -90.2017 130° Southeast 414 476 35,000  Level Chicago Center
Mon 06:13:43 PM 42.3781 -90.0589 129° Southeast 412 474 35,000  Level Chicago Center
Mon 06:15:00 PM 42.2941 -89.9128 128° Southeast  Level FlightAware Approximate
Mon 06:15:47 PM 42.1997 -89.8400 128° Southeast 417 480 35,000  Level Chicago Center
Mon 06:16:49 PM 42.1092 -89.7442 142° Southeast 415 478 35,000  Level Chicago Center
Mon 06:18:00 PM 42.0541 -89.5912 116° Southeast  Level FlightAware Approximate
Mon 06:18:54 PM 41.9539 -89.5261 116° Southeast 410 472 35,000  Level Chicago Center
Mon 06:19:56 PM 41.8894 -89.3992 124° Southeast 414 476 35,000  Level Chicago Center
Mon 06:20:58 PM 41.8064 -89.2531 127° Southeast 414 476 35,000  Level Chicago Center
Mon 06:22:00 PM 41.7344 -89.1344 129° Southeast 411 473 35,000  Level Chicago Center
Mon 06:24:00 PM 41.6032 -88.9118 128° Southeast  Level FlightAware Approximate
Mon 06:25:06 PM 41.5186 -88.7819 128° Southeast 413 475 35,000  Level Chicago Center
Mon 06:26:08 PM 41.4364 -88.6372 127° Southeast 414 476 35,000  Level Chicago Center
Mon 06:27:10 PM 41.3647 -88.5194 129° Southeast 414 476 35,000  Level Chicago Center
Mon 06:28:12 PM 41.2931 -88.4042 130° Southeast 412 474 35,000  Level Chicago Center
Mon 06:29:14 PM 41.2217 -88.2881 129° Southeast 412 474 35,000  Level Chicago Center
Mon 06:31:06 PM 41.0797 -88.0603 130° Southeast 414 476 35,000 34 Level Indianapolis Center
Mon 06:32:08 PM 41.0061 -87.9397 129° Southeast 420 483 35,100  Climbing Indianapolis Center
Mon 06:33:10 PM 40.9194 -87.7975 129° Southeast 420 483 35,000 -30 Descending Indianapolis Center
Mon 06:35:00 PM 40.8041 -87.6301 132° Southeast  Level FlightAware Approximate
Mon 06:35:27 PM 40.7531 -87.5342 132° Southeast 424 488 35,000  Level Chicago Center
Mon 06:36:29 PM 40.6786 -87.4147 129° Southeast 426 490 35,000  Level Chicago Center
Mon 06:37:31 PM 40.6028 -87.2969 130° Southeast 425 489 35,000  Level Chicago Center
Mon 06:38:33 PM 40.5278 -87.1786 130° Southeast 425 489 35,000  Level Chicago Center
Mon 06:39:35 PM 40.4372 -87.0403 131° Southeast 425 489 35,000  Level Chicago Center
Mon 06:41:27 PM 40.3022 -86.8300 130° Southeast 415 478 35,000  Level Indianapolis Center
Mon 06:42:41 PM 40.2136 -86.6919 130° Southeast 418 481 35,000  Level Chicago Center
Mon 06:43:43 PM 40.1400 -86.5797 131° Southeast 411 473 35,000  Level Chicago Center
Mon 06:44:45 PM 40.0661 -86.4667 130° Southeast 410 472 35,000  Level Chicago Center
Mon 06:45:48 PM 39.9783 -86.3319 130° Southeast 401 461 35,000  Level Chicago Center
Mon 06:46:50 PM 39.9053 -86.2178 130° Southeast 404 465 35,000  Level Chicago Center
Mon 06:47:52 PM 39.8300 -86.1047 131° Southeast 403 464 35,000  Level Chicago Center
Mon 06:48:41 PM 39.7708 -86.0158 131° Southeast 402 463 35,000  Level Indianapolis Center
Mon 06:50:45 PM 39.6231 -85.7975 131° Southeast 401 461 35,000  Level Indianapolis Center
Mon 06:52:49 PM 39.5056 -85.5575 122° Southeast 396 456 35,000  Level Indianapolis Center
Mon 06:53:51 PM 39.4492 -85.4086 116° Southeast 388 447 35,000  Level Indianapolis Center
Mon 06:54:53 PM 39.4022 -85.2847 116° Southeast 385 443 35,000  Level Indianapolis Center
Mon 06:55:55 PM 39.3575 -85.1631 115° Southeast 378 435 35,000  Level Indianapolis Center
Mon 06:56:57 PM 39.3125 -85.0411 115° Southeast 378 435 35,000  Level Indianapolis Center
Mon 06:58:00 PM 39.2463 -84.9274 127° Southeast  Level Estimated
Mon 06:59:01 PM 39.1544 -84.8414 127° Southeast 373 429 35,000  Level Indianapolis Center
Mon 07:00:03 PM 39.0875 -84.7378 130° Southeast 382 440 35,000  Level Indianapolis Center
Mon 07:02:00 PM 38.9651 -84.5268 127° Southeast  Level Estimated
Mon 07:03:09 PM 38.8742 -84.4567 127° Southeast 363 418 35,000  Level Indianapolis Center
Mon 07:04:11 PM 38.7958 -84.3450 132° Southeast 358 412 35,000 -206 Level Indianapolis Center
Mon 07:06:00 PM 38.6725 -84.1699 134° Southeast  Level FlightAware Approximate
Mon 07:11:25 PM 38.2883 -83.6736 133° Southeast 380 437 33,300  Level Indianapolis Center
Mon 07:12:27 PM 38.2142 -83.5761 134° Southeast 382 440 33,000 -73 Descending Indianapolis Center
Mon 07:13:00 PM 38.1762 -83.5210 134° Southeast  Level FlightAware Approximate
Mon 07:14:00 PM 38.1057 -83.4347 136° Southeast  Level FlightAware Approximate
Mon 07:14:00 PM 38.1050 -83.4290 135° Southeast  Level FlightAware Approximate
Mon 07:15:00 PM 38.0338 -83.3372 135° Southeast  Level FlightAware Approximate
Mon 07:15:32 PM 37.9978 -83.2950 135° Southeast 367 422 33,000  Level Indianapolis Center
Mon 07:16:00 PM 37.9558 -83.2482 138° Southeast  Level FlightAware Approximate
Mon 07:17:00 PM 37.8926 -83.1582 134° Southeast  Level FlightAware Approximate
Mon 07:17:00 PM 37.8840 -83.1515 133° Southeast  Level FlightAware Approximate
Mon 07:17:36 PM 37.8417 -83.0919 134° Southeast 372 428 33,000  Level Indianapolis Center
Mon 07:18:38 PM 37.7692 -82.9969 134° Southeast 374 430 33,000 -387 Level Indianapolis Center
Mon 07:19:40 PM 37.6950 -82.9008 134° Southeast 379 436 32,200 -1,436 Descending Indianapolis Center
Mon 07:21:00 PM 37.6002 -82.7877 135° Southeast  Level FlightAware Approximate
Mon 07:21:46 PM 37.5250 -82.6914 136° Southeast 396 456 28,500  Level Atlanta Center
Mon 07:22:46 PM 37.4614 -82.6008 131° Southeast 402 463 27,700 -694 Descending Atlanta Center
Mon 07:23:47 PM 37.3872 -82.5050 134° Southeast 389 448 27,100 -341 Descending Indianapolis Center
Mon 07:24:49 PM 37.2967 -82.3956 136° Southeast 386 444 27,000 -50 Descending Indianapolis Center
Mon 07:25:46 PM 37.2325 -82.3158 135° Southeast 381 438 27,000  Level Atlanta Center
Mon 07:26:46 PM 37.1561 -82.2211 135° Southeast 386 444 27,000  Level Atlanta Center
Mon 07:27:46 PM 37.0797 -82.1267 135° Southeast 381 438 27,000  Level Atlanta Center
Mon 07:28:46 PM 37.0053 -82.0322 135° Southeast 381 438 27,000 -458 Level Atlanta Center
Mon 07:29:57 PM 36.9175 -81.9211 135° Southeast 387 445 26,000 -1,400 Descending Indianapolis Center
Mon 07:31:00 PM 36.8344 -82.0411 229° Southwest  Level FlightAware Approximate
Mon 07:31:46 PM 36.7644 -81.7353 229° Southwest 412 474 22,800  Level Atlanta Center
Mon 07:32:46 PM 36.6897 -81.6364 133° Southeast 404 465 21,000 -900 Descending Atlanta Center
Mon 07:33:46 PM 36.6125 -81.5378 134° Southeast 378 435 21,000 -50 Level Atlanta Center
Mon 07:34:46 PM 36.5506 -81.4622 136° Southeast 338 389 20,900 -367 Descending Atlanta Center
Mon 07:36:46 PM 36.4072 -81.2992 138° Southeast 348 400 19,900 -933 Descending Atlanta Center
Mon 07:37:46 PM 36.3472 -81.2214 134° Southeast 354 407 18,100 -1,700 Descending Atlanta Center
Mon 07:38:46 PM 36.2786 -81.1439 138° Southeast 342 394 16,500 -1,650 Descending Atlanta Center
Mon 07:39:46 PM 36.2061 -81.0797 144° Southeast 321 369 14,800 -1,500 Descending Atlanta Center
Mon 07:40:46 PM 36.1336 -81.0181 146° Southeast 316 364 13,500 -1,250 Descending Atlanta Center
Mon 07:41:46 PM 36.0633 -80.9564 145° Southeast 316 364 12,300 -1,150 Descending Atlanta Center
Mon 07:42:46 PM 35.9906 -80.8847 141° Southeast 316 364 11,200 -1,000 Descending Atlanta Center
Mon 07:43:46 PM 35.9386 -80.8097 131° Southeast 295 339 10,300 -750 Descending Atlanta Center
Mon 07:44:46 PM 35.8931 -80.7397 129° Southeast 274 315 9,700 -600 Descending Atlanta Center
Mon 07:45:46 PM 35.8717 -80.6511 107° East 259 298 9,100 -233 Descending Atlanta Center
Mon 07:47:00 PM 35.9191 -80.5058 68° East  Level Estimated
Mon 07:47:46 PM 35.9314 -80.4717 68° East 270 311 9,000  Level Atlanta Center
Mon 07:48:46 PM 35.9600 -80.3831 68° East 270 311 8,700 -850 Descending Atlanta Center
Mon 07:49:46 PM 35.9914 -80.3150 60° Northeast 255 293 7,300 -2,100 Descending Atlanta Center
Mon 07:50:46 PM 36.0000 -80.2531 80° East 226 260 4,500 -2,800 Descending Atlanta Center
Mon 07:52:00 PM 36.0500 -80.1114 90° East  Level FlightAware Approximate
Mon 07:59:00 PM 36.1000 -79.9333 22° Northeast  Level FlightAware Approximate
Mon 08:00:00 PM 36.1013 -79.9411 22° Northeast  Level Estimated
Mon 08:01:00 PM 36.1000 -79.9333 22° Northeast  Level FlightAware Approximate
Mon 08:02:00 PM 36.1013 -79.9411 22° Northeast  Level Estimated
Mon 08:03:00 PM 36.1000 -79.9333 22° Northeast  Level FlightAware Approximate
Mon 08:04:00 PM 36.1013 -79.9411 22° Northeast  Level Estimated
Mon 08:05:00 PM 36.1000 -79.9333 22° Northeast  Level FlightAware Approximate
Mon 08:06:00 PM 36.1013 -79.9411 22° Northeast  Level Estimated
Mon 08:07:00 PM 36.1000 -79.9333 22° Northeast  Level FlightAware Approximate
Mon 08:08:00 PM 36.1013 -79.9411 22° Northeast  Level Estimated
Mon 08:09:00 PM 36.1000 -79.9333 22° Northeast  Level FlightAware Approximate
Mon 08:10:00 PM 36.1013 -79.9411 22° Northeast  Level Estimated
Mon 08:11:00 PM 36.1000 -79.9333 22° Northeast  Level FlightAware Approximate

Login

Don't have an account? Register now (free) for customized features, flight alerts, and more!